Currently 58°F in Murrieta, California, USA
58°F
58°F / 57°F
calm
0.00"
Wednesday, June 20, 2018 2:00 AM PDT

Murrieta, California Weather Summary
Last 36 Hours

Temperature Winds Hourly Humidity Dewpoint
Time Report Norm Report Norm Max Gusts Precip. Rpt. Norm Rpt. Norm Pressure
1Wed 02:00 AM  57.5°F  60°F  calm  1 mph  none  0.00"  94%  85%  56°F  55°F  29.95"
3Wed 01:48 AM  57.2°F  60°F  calm  2 mph  none  ----  94%  84%  55°F  55°F  29.96"
Wed 01:00 AM  57.8°F  61°F  calm  2 mph  none  0.00"  93%  83%  56°F  55°F  29.97"
2Wed 12:00 AM  58.1°F  62°F  calm  2 mph  none  0.00"  91%  82%  55°F  56°F  29.99"
Tue 11:00 PM  59.3°F  63°F  calm  3 mph  none  0.00"  90%  81%  56°F  57°F  30.00"
Tue 10:00 PM  59.8°F  65°F  calm  4 mph  15 mph  0.00"  91%  79%  57°F  58°F  30.00"
Tue 09:00 PM  60.8°F  67°F  calm  6 mph  18 mph  0.00"  89%  75%  57°F  58°F  29.98"
Tue 08:00 PM  64.1°F  70°F  9 mph SW  8 mph  22 mph  0.00"  81%  68%  58°F  59°F  29.96"
Tue 07:00 PM  67.8°F  74°F  13 mph SW  9 mph  22 mph  0.00"  73%  58%  58°F  58°F  29.95"
Tue 06:00 PM  73.3°F  77°F  11 mph SW  11 mph  22 mph  0.00"  61%  51%  59°F  57°F  29.93"
Tue 05:00 PM  77.3°F  81°F  4 mph N  13 mph  22 mph  0.00"  53%  44%  58°F  56°F  29.93"
Tue 04:00 PM  80.1°F  83°F  calm  13 mph  21 mph  0.00"  49%  40%  59°F  55°F  29.94"
Tue 03:00 PM  80.8°F  84°F  calm  13 mph  20 mph  0.00"  48%  39%  59°F  55°F  29.95"
Tue 02:00 PM  80.1°F  84°F  12 mph SW  12 mph  18 mph  0.00"  49%  38%  59°F  55°F  29.96"
Tue 01:00 PM  80.3°F  84°F  6 mph SW  10 mph  16 mph  0.00"  47%  39%  58°F  55°F  29.96"
Tue 12:00 PM  78.8°F  82°F  6 mph S  8 mph  13 mph  0.00"  49%  42%  57°F  56°F  29.97"
Tue 11:00 AM  76.8°F  79°F  4 mph E  6 mph  10 mph  0.00"  53%  48%  58°F  57°F  29.98"
Tue 10:00 AM  72.7°F  75°F  calm  4 mph  8 mph  0.00"  61%  58%  58°F  59°F  29.99"
Tue 09:00 AM  67.0°F  70°F  1 mph SE  2 mph  7 mph  0.00"  74%  71%  58°F  60°F  30.00"
Tue 08:00 AM  61.0°F  65°F  2 mph SE  1 mph  5 mph  0.00"  90%  81%  58°F  59°F  30.01"
Tue 07:00 AM  56.1°F  60°F  calm  calm  none  0.00"  97%  86%  55°F  56°F  30.00"
Tue 06:00 AM  54.4°F  57°F  calm  1 mph  none  0.00"  97%  89%  53°F  53°F  30.00"
Tue 05:00 AM  55.1°F  57°F  calm  1 mph  11 mph  0.00"  97%  88%  54°F  54°F  29.99"
Tue 04:00 AM  54.2°F  58°F  5 mph SW  1 mph  8 mph  0.00"  95%  87%  53°F  54°F  29.99"
Tue 03:00 AM  54.0°F  59°F  2 mph W  1 mph  6 mph  0.00"  94%  86%  52°F  54°F  29.99"
Tue 02:00 AM  54.9°F  60°F  calm  1 mph  6 mph  0.00"  93%  85%  53°F  55°F  30.00"
Tue 01:00 AM  56.1°F  60°F  3 mph SW  2 mph  10 mph  0.00"  93%  84%  54°F  55°F  30.01"
Tue 12:00 AM  57.7°F  61°F  5 mph SW  2 mph  11 mph  0.00"  92%  83%  55°F  56°F  30.02"
Mon 11:00 PM  58.7°F  63°F  6 mph SW  3 mph  11 mph  0.00"  89%  81%  55°F  57°F  30.03"
Mon 10:00 PM  59.9°F  64°F  8 mph SW  4 mph  12 mph  0.00"  86%  79%  55°F  58°F  30.04"
Mon 09:00 PM  62.4°F  66°F  calm  7 mph  14 mph  0.00"  80%  76%  56°F  58°F  30.01"
Mon 08:00 PM  65.2°F  70°F  7 mph W  8 mph  20 mph  0.00"  73%  69%  56°F  59°F  29.98"
Mon 07:00 PM  67.1°F  74°F  13 mph SW  9 mph  22 mph  0.00"  68%  59%  56°F  58°F  29.98"
Mon 06:00 PM  71.3°F  77°F  13 mph SW  11 mph  21 mph  0.00"  59%  51%  56°F  57°F  29.97"
Mon 05:00 PM  74.3°F  81°F  7 mph W  13 mph  22 mph  0.00"  53%  44%  56°F  56°F  29.97"
Mon 04:00 PM  77.1°F  83°F  calm  13 mph  20 mph  0.00"  49%  41%  56°F  56°F  29.97"
Mon 03:00 PM  76.9°F  84°F  8 mph W  12 mph  23 mph  0.00"  48%  39%  55°F  55°F  29.98"

  1. Current weather data. No green row appears if the current weather data is also the high or low for the current day.
  2. High temperature for the current day.
  3. Low temperature for the current day.

The Murrieta weather pages are a service of WeatherCurrents. Murrieta, California is located in the Temecula Valley, in southwestern Riverside County, at the junctions of the Interstate 15 and 215 highways.
Copyright ©Wed Jun 20 02:01:03 PDT 2018  WeatherCurrents. All rights reserved. - Submit questions and comments - Privacy Policy

This page automatically refreshes every 10 minutes.